Time;durP1;ratioP1;P1;durP2;ratioP2;P2;SDS_P1;SDS_P2;PMS_P1;PMS_P2;Temp;Humidity;BMP_temperature;BMP_pressure;BME280_temperature;BME280_humidity;BME280_pressure;Samples;Min_cycle;Max_cycle;Signal;HPM_P1;HPM_P2
2022/05/06 00:02:21;;;;;;;33.05;20.42;;;;;;;;;;4991671;28;20398;-70
2022/05/06 00:04:51;;;;;;;31.48;22.20;;;;;;;;;;5000152;28;20129;-70
2022/05/06 00:07:18;;;;;;;33.40;22.15;;;;;;;;;;5012392;28;20050;-70
2022/05/06 00:09:45;;;;;;;30.98;21.20;;;;;;;;;;5012118;28;20050;-70
2022/05/06 00:12:18;;;;;;;34.92;22.15;;;;;;;;;;5011880;28;20534;-70
2022/05/06 00:14:46;;;;;;;28.25;21.05;;;;;;;;;;5011986;28;20116;-70
2022/05/06 00:17:13;;;;;;;33.03;23.40;;;;;;;;;;5012206;28;20056;-71
2022/05/06 00:19:42;;;;;;;30.75;21.52;;;;;;;;;;5011928;28;20050;-70
2022/05/06 00:22:09;;;;;;;35.45;22.15;;;;;;;;;;5012096;28;20050;-70
2022/05/06 00:24:37;;;;;;;33.80;21.67;;;;;;;;;;5006295;28;20457;-70
2022/05/06 00:27:04;;;;;;;30.80;22.80;;;;;;;;;;4991405;28;20050;-70
2022/05/06 00:29:33;;;;;;;29.42;21.42;;;;;;;;;;4992266;28;20105;-71
2022/05/06 00:32:01;;;;;;;29.20;20.45;;;;;;;;;;4992222;28;20077;-70
2022/05/06 00:34:28;;;;;;;34.70;21.08;;;;;;;;;;4996666;28;20447;-70
2022/05/06 00:36:57;;;;;;;32.15;21.10;;;;;;;;;;5010949;28;20096;-69
2022/05/06 00:39:24;;;;;;;31.65;21.50;;;;;;;;;;5012092;28;20057;-70
2022/05/06 00:41:54;;;;;;;32.65;21.83;;;;;;;;;;5011748;28;20484;-70
2022/05/06 00:44:22;;;;;;;31.40;20.75;;;;;;;;;;5011642;28;20046;-70
2022/05/06 00:46:50;;;;;;;26.80;20.65;;;;;;;;;;4994694;28;20401;-71
2022/05/06 00:49:17;;;;;;;28.10;19.88;;;;;;;;;;4994348;28;20053;-70
2022/05/06 00:51:44;;;;;;;26.88;20.38;;;;;;;;;;5010301;28;20050;-70
2022/05/06 00:54:11;;;;;;;30.20;21.77;;;;;;;;;;5010543;28;20452;-69
2022/05/06 00:56:37;;;;;;;28.63;20.38;;;;;;;;;;4990906;28;20065;-70
2022/05/06 00:59:04;;;;;;;27.52;20.27;;;;;;;;;;4990794;28;20058;-70
2022/05/06 01:01:31;;;;;;;28.40;20.05;;;;;;;;;;4991944;28;20465;-69
2022/05/06 01:03:57;;;;;;;31.70;19.90;;;;;;;;;;4992036;28;20054;-70
2022/05/06 01:06:24;;;;;;;29.67;19.58;;;;;;;;;;4991841;28;20050;-70
2022/05/06 01:08:51;;;;;;;28.20;19.33;;;;;;;;;;4992168;28;20468;-70
2022/05/06 01:11:18;;;;;;;27.10;19.25;;;;;;;;;;4991946;28;20058;-69
2022/05/06 01:13:46;;;;;;;27.50;19.90;;;;;;;;;;4992268;28;20124;-70
2022/05/06 01:16:13;;;;;;;27.75;21.20;;;;;;;;;;4992071;28;20054;-70
2022/05/06 01:18:40;;;;;;;28.50;19.75;;;;;;;;;;4997984;28;20467;-70
2022/05/06 01:21:07;;;;;;;27.05;19.23;;;;;;;;;;5010446;28;20057;-70
2022/05/06 01:23:34;;;;;;;27.55;18.95;;;;;;;;;;4994292;28;20046;-70
2022/05/06 01:26:01;;;;;;;30.65;21.27;;;;;;;;;;5011637;28;20046;-70
2022/05/06 01:28:28;;;;;;;30.35;20.98;;;;;;;;;;5011339;28;20058;-69
2022/05/06 01:31:03;;;;;;;34.95;22.00;;;;;;;;;;5013269;28;20119;-70
2022/05/06 01:33:31;;;;;;;29.20;21.33;;;;;;;;;;5015245;28;20485;-69
2022/05/06 01:36:06;;;;;;;31.15;20.80;;;;;;;;;;5015170;28;20124;-69
2022/05/06 01:38:43;;;;;;;28.77;20.83;;;;;;;;;;5015079;28;20115;-69
2022/05/06 01:41:24;;;;;;;34.17;22.42;;;;;;;;;;5014765;28;20108;-70
2022/05/06 01:43:53;;;;;;;29.05;21.00;;;;;;;;;;4998024;28;20408;-70
2022/05/06 01:46:21;;;;;;;32.38;20.63;;;;;;;;;;4997633;28;20061;-70
2022/05/06 01:48:48;;;;;;;29.50;20.80;;;;;;;;;;4978099;28;20255;-70
2022/05/06 01:51:15;;;;;;;31.60;21.42;;;;;;;;;;4977836;28;20054;-70
2022/05/06 01:53:42;;;;;;;29.27;20.38;;;;;;;;;;4994938;28;20414;-70
2022/05/06 01:56:08;;;;;;;27.98;19.52;;;;;;;;;;4993961;28;20104;-70
2022/05/06 01:58:36;;;;;;;28.85;19.40;;;;;;;;;;4994868;28;20174;-70
2022/05/06 02:01:02;;;;;;;29.20;21.00;;;;;;;;;;4995019;28;20054;-70
2022/05/06 02:06:14;;;;;;;36.08;21.95;;;;;;;;;;4995123;28;20101;-69
2022/05/06 02:08:41;;;;;;;33.47;21.08;;;;;;;;;;4993503;28;20109;-70
2022/05/06 02:11:08;;;;;;;28.90;20.30;;;;;;;;;;4994818;28;20058;-71
2022/05/06 02:13:34;;;;;;;31.10;20.73;;;;;;;;;;4994855;28;20046;-71
2022/05/06 02:16:02;;;;;;;30.67;18.70;;;;;;;;;;4997334;28;20050;-70
2022/05/06 02:18:29;;;;;;;27.45;20.17;;;;;;;;;;5001412;28;20065;-70
2022/05/06 02:20:59;;;;;;;30.92;21.63;;;;;;;;;;5014016;28;20050;-70
2022/05/06 02:23:26;;;;;;;28.85;20.25;;;;;;;;;;5014157;28;20046;-70
2022/05/06 02:25:53;;;;;;;29.08;19.80;;;;;;;;;;5013899;28;20050;-68
2022/05/06 02:28:19;;;;;;;34.45;20.77;;;;;;;;;;5002966;28;20105;-69
2022/05/06 02:33:31;;;;;;;27.98;19.88;;;;;;;;;;4994203;28;20047;-69
2022/05/06 02:35:59;;;;;;;29.02;19.00;;;;;;;;;;4994365;28;20101;-70
2022/05/06 02:38:26;;;;;;;31.02;20.17;;;;;;;;;;4994536;28;20394;-69
2022/05/06 02:40:53;;;;;;;32.05;19.17;;;;;;;;;;4994230;28;20472;-69
2022/05/06 02:43:20;;;;;;;30.48;19.20;;;;;;;;;;4994476;28;20050;-70
2022/05/06 02:45:46;;;;;;;30.67;19.02;;;;;;;;;;4996005;28;20081;-70
2022/05/06 02:48:13;;;;;;;24.45;17.80;;;;;;;;;;5013678;28;20500;-71
2022/05/06 02:50:41;;;;;;;25.50;16.63;;;;;;;;;;5013580;28;20108;-70
2022/05/06 02:53:07;;;;;;;29.55;18.45;;;;;;;;;;5004328;28;20053;-69
2022/05/06 02:55:34;;;;;;;24.45;17.67;;;;;;;;;;4993969;28;20054;-71
2022/05/06 02:58:01;;;;;;;26.80;18.48;;;;;;;;;;4993993;28;20055;-70
2022/05/06 03:00:28;;;;;;;26.27;17.70;;;;;;;;;;4993719;28;20065;-71
2022/05/06 03:02:56;;;;;;;23.60;17.13;;;;;;;;;;4993755;28;20130;-71
2022/05/06 03:05:24;;;;;;;24.65;16.02;;;;;;;;;;4993960;28;20054;-70
2022/05/06 03:07:51;;;;;;;23.13;17.88;;;;;;;;;;4992514;28;20058;-70
2022/05/06 03:10:18;;;;;;;23.77;17.02;;;;;;;;;;4993580;28;20129;-70
2022/05/06 03:12:46;;;;;;;22.10;15.70;;;;;;;;;;4993485;28;20104;-69
2022/05/06 03:15:13;;;;;;;22.15;15.18;;;;;;;;;;4993627;28;20131;-70
2022/05/06 03:17:40;;;;;;;21.52;15.98;;;;;;;;;;4993667;28;20096;-69
2022/05/06 03:20:10;;;;;;;25.30;16.70;;;;;;;;;;4993643;28;20054;-70
2022/05/06 03:22:41;;;;;;;24.33;16.27;;;;;;;;;;4993448;28;20047;-70
2022/05/06 03:25:09;;;;;;;20.15;15.40;;;;;;;;;;4993661;28;20054;-71
2022/05/06 03:30:21;;;;;;;22.98;14.02;;;;;;;;;;4993332;28;20053;-71
2022/05/06 03:32:48;;;;;;;18.98;14.02;;;;;;;;;;4993009;28;20046;-70
2022/05/06 03:35:15;;;;;;;21.30;15.85;;;;;;;;;;4992036;28;20050;-70
2022/05/06 03:37:42;;;;;;;21.30;14.80;;;;;;;;;;4991934;28;20057;-71
2022/05/06 03:40:09;;;;;;;21.48;14.10;;;;;;;;;;4992000;28;20476;-70
2022/05/06 03:42:36;;;;;;;19.58;13.73;;;;;;;;;;4992623;28;20050;-70
2022/05/06 03:45:03;;;;;;;22.70;14.10;;;;;;;;;;4993195;28;20051;-70
2022/05/06 03:47:29;;;;;;;19.63;13.38;;;;;;;;;;4993129;28;20077;-70
2022/05/06 03:52:41;;;;;;;18.23;13.05;;;;;;;;;;5006352;28;20049;-70
2022/05/06 03:55:08;;;;;;;17.20;12.48;;;;;;;;;;5012443;28;20068;-70
2022/05/06 03:57:35;;;;;;;17.05;13.18;;;;;;;;;;5012681;28;20463;-71
2022/05/06 04:00:02;;;;;;;19.58;12.90;;;;;;;;;;5012219;28;20049;-70
2022/05/06 04:02:29;;;;;;;17.48;13.50;;;;;;;;;;5012241;28;20086;-69
2022/05/06 04:04:56;;;;;;;17.73;12.80;;;;;;;;;;5012438;28;20046;-70
2022/05/06 04:07:22;;;;;;;18.05;13.13;;;;;;;;;;5012211;28;20100;-70
2022/05/06 04:09:49;;;;;;;17.92;12.45;;;;;;;;;;5012027;28;20054;-71
2022/05/06 04:12:15;;;;;;;14.82;12.05;;;;;;;;;;5012350;28;20127;-69
2022/05/06 04:14:42;;;;;;;16.33;11.77;;;;;;;;;;5012502;28;20050;-70
2022/05/06 04:17:09;;;;;;;15.18;11.80;;;;;;;;;;5012697;28;20108;-70
2022/05/06 04:19:35;;;;;;;14.45;11.68;;;;;;;;;;5016806;28;20084;-69
2022/05/06 04:25:01;;;;;;;17.05;12.07;;;;;;;;;;4989733;28;20493;-70
2022/05/06 04:27:27;;;;;;;15.57;12.45;;;;;;;;;;5012311;28;20472;-71
2022/05/06 04:29:54;;;;;;;15.13;11.95;;;;;;;;;;5012150;28;20104;-71
2022/05/06 04:32:21;;;;;;;15.98;12.43;;;;;;;;;;5011864;28;20050;-71
2022/05/06 04:34:48;;;;;;;15.93;12.75;;;;;;;;;;5011918;28;20050;-71
2022/05/06 04:37:15;;;;;;;15.43;12.80;;;;;;;;;;5005522;28;20054;-71
2022/05/06 04:39:42;;;;;;;16.63;12.55;;;;;;;;;;4992612;28;20457;-71
2022/05/06 04:42:08;;;;;;;16.02;12.63;;;;;;;;;;4992403;28;20077;-70
2022/05/06 04:44:35;;;;;;;14.02;11.38;;;;;;;;;;4992221;28;20046;-71
2022/05/06 04:47:02;;;;;;;16.00;11.82;;;;;;;;;;5010846;28;20046;-71
2022/05/06 04:49:28;;;;;;;17.13;12.38;;;;;;;;;;5012134;28;20063;-71
2022/05/06 04:51:55;;;;;;;17.38;12.30;;;;;;;;;;5011996;28;20049;-71
2022/05/06 04:54:22;;;;;;;15.25;12.10;;;;;;;;;;5012169;28;20100;-71
2022/05/06 04:56:49;;;;;;;17.83;11.30;;;;;;;;;;5011632;28;20046;-70
2022/05/06 04:59:15;;;;;;;18.55;12.27;;;;;;;;;;5012285;28;20057;-70
2022/05/06 05:01:42;;;;;;;14.20;11.90;;;;;;;;;;4996460;28;20509;-71
2022/05/06 05:04:09;;;;;;;16.95;13.05;;;;;;;;;;4994193;28;20129;-69
2022/05/06 05:06:35;;;;;;;14.57;12.88;;;;;;;;;;5004904;28;20420;-70
2022/05/06 05:09:02;;;;;;;16.42;12.82;;;;;;;;;;5014393;28;20080;-70
2022/05/06 05:11:29;;;;;;;17.70;13.85;;;;;;;;;;5014261;28;20149;-70
2022/05/06 05:13:55;;;;;;;16.27;13.75;;;;;;;;;;5015349;28;20050;-69
2022/05/06 05:16:22;;;;;;;17.45;13.32;;;;;;;;;;5014660;28;20046;-71
2022/05/06 05:18:49;;;;;;;15.77;13.23;;;;;;;;;;5015285;28;20057;-71
2022/05/06 05:21:15;;;;;;;19.38;13.50;;;;;;;;;;5015268;28;20052;-71
2022/05/06 05:23:42;;;;;;;16.63;13.20;;;;;;;;;;5015245;28;20053;-70
2022/05/06 05:26:09;;;;;;;17.70;13.07;;;;;;;;;;5014695;28;20053;-71
2022/05/06 05:28:35;;;;;;;21.70;13.52;;;;;;;;;;5015197;28;20516;-71
2022/05/06 05:31:02;;;;;;;17.85;14.02;;;;;;;;;;5028929;22;20047;-66
2022/05/06 05:33:29;;;;;;;14.93;12.85;;;;;;;;;;4995398;28;20047;-66
2022/05/06 05:35:56;;;;;;;15.43;12.50;;;;;;;;;;4995717;28;20101;-65
2022/05/06 05:38:22;;;;;;;18.08;13.30;;;;;;;;;;4995256;28;20108;-65
2022/05/06 05:40:49;;;;;;;19.65;13.65;;;;;;;;;;4995247;28;20050;-69
2022/05/06 05:48:46;;;;;;;18.02;13.07;;;;;;;;;;4995075;28;20054;-66
2022/05/06 05:51:13;;;;;;;17.63;13.98;;;;;;;;;;4995084;28;20051;-67
2022/05/06 05:53:39;;;;;;;15.13;13.52;;;;;;;;;;4995641;28;20456;-67
2022/05/06 05:56:06;;;;;;;17.60;13.35;;;;;;;;;;4995135;28;20054;-67
2022/05/06 05:58:34;;;;;;;14.73;12.68;;;;;;;;;;4993509;28;20468;-66
2022/05/06 06:01:03;;;;;;;17.65;13.55;;;;;;;;;;4992761;28;20146;-66
2022/05/06 06:03:30;;;;;;;17.55;14.20;;;;;;;;;;4992918;28;20498;-66
2022/05/06 06:05:56;;;;;;;16.73;13.43;;;;;;;;;;4993025;28;20050;-66
2022/05/06 06:08:24;;;;;;;19.02;13.48;;;;;;;;;;4991646;28;20054;-66
2022/05/06 06:10:50;;;;;;;22.63;13.30;;;;;;;;;;4992493;28;20472;-67
2022/05/06 06:13:17;;;;;;;17.23;12.70;;;;;;;;;;4992854;28;20050;-68
2022/05/06 06:15:44;;;;;;;20.30;13.85;;;;;;;;;;4992189;28;20054;-67
2022/05/06 06:18:10;;;;;;;20.08;13.52;;;;;;;;;;4992643;28;20497;-66
2022/05/06 06:20:37;;;;;;;22.63;14.02;;;;;;;;;;4992580;28;20050;-68
2022/05/06 06:23:04;;;;;;;17.52;13.32;;;;;;;;;;4992407;28;20417;-67
2022/05/06 06:25:31;;;;;;;18.88;12.98;;;;;;;;;;4996098;28;20046;-66
2022/05/06 06:27:57;;;;;;;18.13;12.55;;;;;;;;;;5012207;28;20054;-67
2022/05/06 06:30:24;;;;;;;15.45;12.20;;;;;;;;;;4994947;28;20065;-67
2022/05/06 06:32:51;;;;;;;17.23;12.88;;;;;;;;;;4992290;28;20084;-67
2022/05/06 06:35:18;;;;;;;17.70;13.90;;;;;;;;;;4992740;28;20512;-67
2022/05/06 06:37:45;;;;;;;16.27;12.68;;;;;;;;;;4991872;28;20054;-68
2022/05/06 06:40:12;;;;;;;16.80;13.50;;;;;;;;;;4992637;28;20062;-67
2022/05/06 06:42:41;;;;;;;15.45;13.07;;;;;;;;;;4992238;28;20097;-67
2022/05/06 06:45:09;;;;;;;15.95;13.23;;;;;;;;;;4992495;28;20050;-67
2022/05/06 06:47:37;;;;;;;17.30;13.52;;;;;;;;;;4992148;28;20066;-67
2022/05/06 06:50:04;;;;;;;16.27;12.93;;;;;;;;;;4991906;28;20473;-67
2022/05/06 06:52:31;;;;;;;16.85;11.73;;;;;;;;;;4991633;28;20085;-67
2022/05/06 06:54:57;;;;;;;16.95;13.13;;;;;;;;;;4991826;28;20077;-67
2022/05/06 06:57:26;;;;;;;15.88;13.15;;;;;;;;;;5010565;28;20452;-67
2022/05/06 06:59:53;;;;;;;18.33;12.18;;;;;;;;;;5011417;28;20500;-67
2022/05/06 07:02:20;;;;;;;13.82;12.35;;;;;;;;;;5011298;28;20081;-67
2022/05/06 07:04:46;;;;;;;16.70;12.45;;;;;;;;;;5010676;28;20073;-67
2022/05/06 07:12:48;;;;;;;21.50;16.50;;;;;;;;;;4996336;28;20061;-69
2022/05/06 07:15:18;;;;;;;16.73;13.30;;;;;;;;;;4978721;28;20050;-70
2022/05/06 07:17:46;;;;;;;16.05;13.38;;;;;;;;;;4986897;28;20069;-69
2022/05/06 07:20:13;;;;;;;13.18;11.98;;;;;;;;;;4981901;28;20054;-69
2022/05/06 07:22:40;;;;;;;15.68;10.73;;;;;;;;;;4980948;28;20055;-67
2022/05/06 07:25:08;;;;;;;14.23;11.68;;;;;;;;;;4978950;28;20043;-69
2022/05/06 07:27:35;;;;;;;15.73;11.02;;;;;;;;;;4983227;28;20050;-68
2022/05/06 07:30:03;;;;;;;12.07;10.80;;;;;;;;;;4981155;28;20057;-69
2022/05/06 07:32:30;;;;;;;15.15;11.95;;;;;;;;;;4980647;28;20092;-71
2022/05/06 07:34:57;;;;;;;14.52;11.80;;;;;;;;;;4982572;28;20051;-69
2022/05/06 07:37:24;;;;;;;21.25;13.13;;;;;;;;;;4979404;28;20501;-70
2022/05/06 07:39:51;;;;;;;15.88;12.98;;;;;;;;;;4979201;28;20054;-70
2022/05/06 07:42:22;;;;;;;16.88;12.90;;;;;;;;;;5059048;23;20053;-71
2022/05/06 07:45:02;;;;;;;;;;;;;;;;;;;;;
2022/05/06 07:48:00;;;;;;;15.60;12.13;;;;;;;;;;4925149;28;20055;-71
2022/05/06 07:50:32;;;;;;;17.30;13.07;;;;;;;;;;5014463;28;20104;-70
2022/05/06 07:53:01;;;;;;;15.82;12.57;;;;;;;;;;5017339;28;20493;-69
2022/05/06 07:55:29;;;;;;;15.38;12.40;;;;;;;;;;5019149;28;20049;-70
2022/05/06 07:57:57;;;;;;;16.10;12.73;;;;;;;;;;5019105;28;20104;-70
2022/05/06 08:00:24;;;;;;;13.98;12.35;;;;;;;;;;5021029;28;20050;-70
2022/05/06 08:05:40;;;;;;;16.85;10.70;;;;;;;;;;5021181;28;20050;-71
2022/05/06 08:08:07;;;;;;;13.43;11.35;;;;;;;;;;5034553;28;20053;-72
2022/05/06 08:10:35;;;;;;;15.38;11.55;;;;;;;;;;5004869;28;20050;-71
2022/05/06 08:13:03;;;;;;;11.90;10.70;;;;;;;;;;5002143;28;20052;-71
2022/05/06 08:15:44;;;;;;;16.90;11.40;;;;;;;;;;4983316;28;20108;-72
2022/05/06 08:18:44;;;;;;;16.42;10.18;;;;;;;;;;4986298;28;20076;-72
2022/05/06 08:21:15;;;;;;;16.10;11.15;;;;;;;;;;4995503;28;20076;-71
2022/05/06 08:23:45;;;;;;;16.98;12.65;;;;;;;;;;5001738;28;20051;-72
2022/05/06 08:26:12;;;;;;;15.18;10.95;;;;;;;;;;5017061;28;20120;-72
2022/05/06 08:29:00;;;;;;;14.35;10.82;;;;;;;;;;5018450;28;20048;-71
2022/05/06 08:31:27;;;;;;;14.25;10.43;;;;;;;;;;5000441;28;20056;-68
2022/05/06 08:33:55;;;;;;;12.90;9.90;;;;;;;;;;5019346;28;20050;-71
2022/05/06 08:36:28;;;;;;;11.57;8.95;;;;;;;;;;4972696;28;20145;-71
2022/05/06 08:38:56;;;;;;;12.25;9.70;;;;;;;;;;4968878;28;20578;-72
2022/05/06 08:41:27;;;;;;;11.50;9.80;;;;;;;;;;4983761;28;20056;-72
2022/05/06 08:52:36;;;;;;;9.63;8.15;;;;;;;;;;5020138;28;20500;-67
2022/05/06 08:55:04;;;;;;;10.45;7.78;;;;;;;;;;5017728;28;20051;-68
2022/05/06 08:57:31;;;;;;;8.68;7.78;;;;;;;;;;5017828;28;20053;-68
2022/05/06 08:59:58;;;;;;;12.95;7.82;;;;;;;;;;5019105;28;20049;-68
2022/05/06 09:02:26;;;;;;;11.75;7.93;;;;;;;;;;5018438;28;20053;-68
2022/05/06 09:04:53;;;;;;;9.48;8.57;;;;;;;;;;5018940;28;20049;-68
2022/05/06 09:07:21;;;;;;;9.02;8.15;;;;;;;;;;5021139;28;20096;-68
2022/05/06 09:10:03;;;;;;;9.13;7.10;;;;;;;;;;5021502;28;20049;-68
2022/05/06 09:12:41;;;;;;;8.75;7.38;;;;;;;;;;5013508;28;20049;-68
2022/05/06 09:17:56;;;;;;;10.68;7.50;;;;;;;;;;5018059;28;20091;-68
2022/05/06 09:20:24;;;;;;;9.38;6.65;;;;;;;;;;5017824;28;20046;-68
2022/05/06 09:22:52;;;;;;;9.73;6.97;;;;;;;;;;5017853;28;20095;-68
2022/05/06 09:25:59;;;;;;;9.13;7.13;;;;;;;;;;5016959;28;20123;-68
2022/05/06 09:28:32;;;;;;;8.63;6.30;;;;;;;;;;5020303;28;20498;-68
2022/05/06 09:30:59;;;;;;;6.55;5.82;;;;;;;;;;5013267;28;20050;-68
2022/05/06 09:33:28;;;;;;;10.15;6.47;;;;;;;;;;5010879;28;20050;-68
2022/05/06 09:35:56;;;;;;;7.78;6.00;;;;;;;;;;5001354;28;20046;-70
2022/05/06 09:38:29;;;;;;;9.18;5.78;;;;;;;;;;5010957;28;20050;-69
2022/05/06 09:40:57;;;;;;;9.43;7.00;;;;;;;;;;5009756;28;20057;-70
2022/05/06 09:43:24;;;;;;;8.52;6.43;;;;;;;;;;5010234;28;20419;-67
2022/05/06 09:45:50;;;;;;;8.40;6.57;;;;;;;;;;5011376;28;20092;-69
2022/05/06 09:48:17;;;;;;;7.30;5.68;;;;;;;;;;5010076;28;20100;-70
2022/05/06 09:50:46;;;;;;;9.45;5.70;;;;;;;;;;5012520;28;20169;-71
2022/05/06 09:53:19;;;;;;;7.20;5.95;;;;;;;;;;5014794;28;20061;-67
2022/05/06 09:55:47;;;;;;;9.52;6.25;;;;;;;;;;4997212;28;20046;-67
2022/05/06 09:58:15;;;;;;;7.07;6.05;;;;;;;;;;5012340;28;20128;-66
2022/05/06 10:00:41;;;;;;;7.80;5.72;;;;;;;;;;5012568;28;20054;-66
2022/05/06 10:03:09;;;;;;;6.15;5.53;;;;;;;;;;5012466;28;20057;-66
2022/05/06 10:05:37;;;;;;;9.52;5.88;;;;;;;;;;5012604;28;20362;-67
2022/05/06 10:08:12;;;;;;;7.75;5.53;;;;;;;;;;5012289;28;20100;-66
2022/05/06 10:10:40;;;;;;;17.98;6.10;;;;;;;;;;5010753;28;20424;-66
2022/05/06 10:13:14;;;;;;;6.95;5.30;;;;;;;;;;5011844;28;20058;-66
2022/05/06 10:15:41;;;;;;;10.98;6.85;;;;;;;;;;5011077;28;20049;-66
2022/05/06 10:18:08;;;;;;;8.02;5.78;;;;;;;;;;5011090;28;20501;-67
2022/05/06 10:20:37;;;;;;;6.60;4.95;;;;;;;;;;5011927;28;20108;-67
2022/05/06 10:23:11;;;;;;;7.57;4.85;;;;;;;;;;5011915;28;20062;-66
2022/05/06 10:25:41;;;;;;;8.98;5.03;;;;;;;;;;5011987;28;20050;-67
2022/05/06 10:34:18;;;;;;;5.28;4.35;;;;;;;;;;4996053;28;20086;-73
2022/05/06 10:36:49;;;;;;;5.10;4.38;;;;;;;;;;5010508;28;20050;-70
2022/05/06 10:39:39;;;;;;;5.13;4.65;;;;;;;;;;5016647;28;20447;-69
2022/05/06 10:42:14;;;;;;;5.90;4.45;;;;;;;;;;5024672;28;20123;-70
2022/05/06 10:44:46;;;;;;;8.38;5.05;;;;;;;;;;5023882;28;20080;-69
2022/05/06 10:47:12;;;;;;;7.53;4.47;;;;;;;;;;5020605;28;20428;-68
2022/05/06 10:49:39;;;;;;;7.00;3.97;;;;;;;;;;5019647;28;20053;-68
2022/05/06 10:52:28;;;;;;;6.30;3.92;;;;;;;;;;5020457;28;20054;-71
2022/05/06 10:55:00;;;;;;;8.30;4.15;;;;;;;;;;5020466;28;20045;-72
2022/05/06 10:57:30;;;;;;;5.45;3.50;;;;;;;;;;5019326;28;20046;-69
2022/05/06 11:00:02;;;;;;;4.97;3.75;;;;;;;;;;5023103;28;20453;-73
2022/05/06 11:02:33;;;;;;;3.60;3.27;;;;;;;;;;5016031;28;20061;-70
2022/05/06 11:05:02;;;;;;;6.50;3.40;;;;;;;;;;5020109;28;20663;-70
2022/05/06 11:07:30;;;;;;;5.03;3.15;;;;;;;;;;5018592;28;20073;-70
2022/05/06 11:09:57;;;;;;;7.82;4.55;;;;;;;;;;5018925;28;20045;-68
2022/05/06 11:12:34;;;;;;;8.00;4.00;;;;;;;;;;5005849;28;20079;-70
2022/05/06 11:15:04;;;;;;;5.65;3.30;;;;;;;;;;5016419;28;20523;-71
2022/05/06 11:17:32;;;;;;;5.72;3.17;;;;;;;;;;5018716;28;20488;-71
2022/05/06 11:19:59;;;;;;;3.70;3.13;;;;;;;;;;5020112;28;20100;-70
2022/05/06 11:22:26;;;;;;;5.40;3.75;;;;;;;;;;5015810;28;20056;-70
2022/05/06 11:24:56;;;;;;;6.28;3.78;;;;;;;;;;5019075;28;20045;-68
2022/05/06 11:27:24;;;;;;;7.93;3.13;;;;;;;;;;5019143;28;20116;-70
2022/05/06 11:29:56;;;;;;;6.95;3.33;;;;;;;;;;5021386;28;20504;-70
2022/05/06 11:32:31;;;;;;;5.18;3.08;;;;;;;;;;5015227;28;20045;-70
2022/05/06 11:34:58;;;;;;;6.55;3.22;;;;;;;;;;5018977;28;20049;-71
2022/05/06 11:37:27;;;;;;;6.45;3.95;;;;;;;;;;5019962;28;20045;-67
2022/05/06 11:42:47;;;;;;;7.30;3.50;;;;;;;;;;4997276;28;20057;-70
2022/05/06 11:48:07;;;;;;;4.25;3.53;;;;;;;;;;5016278;28;20416;-71
2022/05/06 11:50:35;;;;;;;4.90;3.30;;;;;;;;;;5023180;28;20535;-73
2022/05/06 11:53:04;;;;;;;6.78;3.58;;;;;;;;;;5001761;28;20100;-72
2022/05/06 11:55:31;;;;;;;5.80;3.03;;;;;;;;;;5000771;28;20049;-72
2022/05/06 11:57:58;;;;;;;3.50;3.20;;;;;;;;;;5017700;28;20053;-72
2022/05/06 12:00:25;;;;;;;6.03;3.55;;;;;;;;;;5016295;28;20053;-72
2022/05/06 12:02:56;;;;;;;8.45;4.85;;;;;;;;;;5018668;28;20053;-72
2022/05/06 12:05:22;;;;;;;5.10;3.85;;;;;;;;;;5018784;28;20054;-72
2022/05/06 12:07:49;;;;;;;5.45;3.22;;;;;;;;;;5018647;28;20173;-70
2022/05/06 12:10:26;;;;;;;5.55;3.58;;;;;;;;;;5017497;28;20054;-66
2022/05/06 12:12:57;;;;;;;5.57;3.70;;;;;;;;;;5012094;28;20053;-70
2022/05/06 12:15:34;;;;;;;4.55;3.53;;;;;;;;;;5018274;28;20068;-71
2022/05/06 12:18:11;;;;;;;8.60;3.38;;;;;;;;;;5016567;28;20061;-71
2022/05/06 12:20:42;;;;;;;4.78;3.03;;;;;;;;;;5018709;28;20482;-72
2022/05/06 12:23:11;;;;;;;9.60;4.30;;;;;;;;;;5019519;28;20129;-70
2022/05/06 12:25:41;;;;;;;4.95;3.85;;;;;;;;;;5017100;28;20049;-71
2022/05/06 12:28:20;;;;;;;5.50;4.13;;;;;;;;;;5018972;28;20128;-72
2022/05/06 12:30:57;;;;;;;4.93;3.50;;;;;;;;;;5020443;28;20053;-71
2022/05/06 12:33:35;;;;;;;3.97;3.33;;;;;;;;;;5013031;28;20085;-69
2022/05/06 12:36:04;;;;;;;4.32;3.22;;;;;;;;;;5004898;28;20045;-71
2022/05/06 12:38:40;;;;;;;4.88;3.80;;;;;;;;;;5018953;28;20045;-70
2022/05/06 12:41:32;;;;;;;3.75;3.35;;;;;;;;;;5016154;28;20053;-69
2022/05/06 12:44:14;;;;;;;5.65;3.45;;;;;;;;;;5013215;28;20054;-68
2022/05/06 12:46:41;;;;;;;4.97;3.55;;;;;;;;;;5017479;28;20041;-69
2022/05/06 12:51:53;;;;;;;4.25;3.33;;;;;;;;;;5015395;28;20097;-68
2022/05/06 12:54:22;;;;;;;3.47;3.08;;;;;;;;;;5018451;28;20053;-68
2022/05/06 12:56:48;;;;;;;4.55;3.17;;;;;;;;;;5017676;28;20060;-69
2022/05/06 12:59:16;;;;;;;4.50;3.78;;;;;;;;;;5018343;28;20512;-68
2022/05/06 13:01:43;;;;;;;6.47;3.10;;;;;;;;;;5018131;28;20107;-69
2022/05/06 13:04:10;;;;;;;7.15;3.30;;;;;;;;;;5017452;28;20045;-68
2022/05/06 13:06:36;;;;;;;4.88;3.17;;;;;;;;;;5019070;28;20042;-69
2022/05/06 13:09:03;;;;;;;4.20;3.08;;;;;;;;;;5017014;28;20058;-69
2022/05/06 13:11:30;;;;;;;5.07;3.65;;;;;;;;;;5018661;28;20496;-68
2022/05/06 13:13:58;;;;;;;4.25;3.35;;;;;;;;;;5013158;28;20512;-68
2022/05/06 13:16:25;;;;;;;5.25;3.72;;;;;;;;;;5018983;28;20053;-68
2022/05/06 13:18:53;;;;;;;4.93;3.42;;;;;;;;;;5016944;28;20046;-69
2022/05/06 13:21:20;;;;;;;5.78;3.47;;;;;;;;;;5018530;28;20104;-69
2022/05/06 13:23:46;;;;;;;6.10;4.00;;;;;;;;;;5018685;28;20053;-69
2022/05/06 13:26:13;;;;;;;4.47;3.20;;;;;;;;;;5021056;28;20111;-68
2022/05/06 13:28:40;;;;;;;3.35;3.00;;;;;;;;;;5020962;28;20061;-69
2022/05/06 13:31:06;;;;;;;7.53;3.35;;;;;;;;;;5022981;28;20051;-69
2022/05/06 13:33:35;;;;;;;5.53;3.85;;;;;;;;;;5020950;28;20101;-70
2022/05/06 13:36:02;;;;;;;4.90;3.45;;;;;;;;;;5013729;28;20394;-70
2022/05/06 13:38:28;;;;;;;4.95;3.30;;;;;;;;;;5017748;28;20362;-69
2022/05/06 13:41:02;;;;;;;;;;;;;;;;;;5017042;28;20053;-69
2022/05/06 13:43:29;;;;;;;6.50;3.08;;;;;;;;;;5024608;28;20026;-71
2022/05/06 13:45:56;;;;;;;5.55;3.25;;;;;;;;;;5020518;28;20421;-68
2022/05/06 13:48:23;;;;;;;3.83;2.88;;;;;;;;;;5021760;28;20508;-67
2022/05/06 13:50:50;;;;;;;5.82;3.47;;;;;;;;;;5022230;28;20057;-70
2022/05/06 13:53:16;;;;;;;7.38;3.28;;;;;;;;;;5021854;28;20614;-70
2022/05/06 14:01:15;;;;;;;4.82;2.75;;;;;;;;;;5023196;28;20517;-70
2022/05/06 14:03:42;;;;;;;4.43;3.00;;;;;;;;;;5023993;28;20136;-70
2022/05/06 14:06:09;;;;;;;5.85;3.88;;;;;;;;;;5016154;28;20413;-69
2022/05/06 14:08:36;;;;;;;5.40;2.97;;;;;;;;;;5025680;28;20050;-68
2022/05/06 14:11:03;;;;;;;4.70;3.15;;;;;;;;;;5021728;28;20547;-68
2022/05/06 14:13:30;;;;;;;5.43;3.33;;;;;;;;;;5020549;28;20049;-70
2022/05/06 14:15:56;;;;;;;4.88;3.03;;;;;;;;;;5019848;28;20045;-69
2022/05/06 14:18:23;;;;;;;5.32;3.40;;;;;;;;;;5021071;28;20471;-69
2022/05/06 14:20:50;;;;;;;4.13;3.70;;;;;;;;;;5021785;28;20041;-70
2022/05/06 14:23:16;;;;;;;5.43;2.80;;;;;;;;;;5022451;28;20049;-69
2022/05/06 14:25:44;;;;;;;3.97;2.90;;;;;;;;;;5020981;28;20056;-65
2022/05/06 14:28:11;;;;;;;4.22;2.92;;;;;;;;;;5021025;28;20124;-65
2022/05/06 14:30:41;;;;;;;8.48;3.15;;;;;;;;;;5021382;28;20103;-68
2022/05/06 14:33:08;;;;;;;6.28;3.38;;;;;;;;;;5019674;28;20295;-70
2022/05/06 14:35:36;;;;;;;5.78;3.25;;;;;;;;;;5021140;28;20077;-71
2022/05/06 14:38:04;;;;;;;3.40;2.90;;;;;;;;;;5018914;28;20133;-69
2022/05/06 14:40:31;;;;;;;4.15;3.08;;;;;;;;;;5026539;28;20053;-70
2022/05/06 14:42:58;;;;;;;3.53;3.17;;;;;;;;;;5018735;28;20046;-69
2022/05/06 14:45:25;;;;;;;6.13;3.13;;;;;;;;;;5020437;28;20489;-69
2022/05/06 14:47:52;;;;;;;4.47;3.00;;;;;;;;;;5021745;28;20050;-68
2022/05/06 14:50:18;;;;;;;4.50;2.90;;;;;;;;;;5020369;28;20099;-69
2022/05/06 14:52:45;;;;;;;5.85;2.70;;;;;;;;;;5020429;28;20081;-70
2022/05/06 14:55:12;;;;;;;6.32;3.38;;;;;;;;;;5022550;28;20046;-69
2022/05/06 14:57:39;;;;;;;4.55;3.17;;;;;;;;;;5021087;28;20057;-68
2022/05/06 15:00:10;;;;;;;3.50;3.03;;;;;;;;;;5020477;28;20103;-72
2022/05/06 15:02:37;;;;;;;4.57;3.55;;;;;;;;;;5019965;28;20059;-70
2022/05/06 15:05:04;;;;;;;4.60;3.08;;;;;;;;;;5019903;28;20406;-69
2022/05/06 15:07:31;;;;;;;4.03;3.08;;;;;;;;;;5020749;28;20042;-69
2022/05/06 15:09:58;;;;;;;4.07;2.83;;;;;;;;;;5017423;28;20049;-69
2022/05/06 15:12:24;;;;;;;7.35;3.65;;;;;;;;;;5020804;28;20049;-71
2022/05/06 15:14:51;;;;;;;4.05;3.28;;;;;;;;;;5003363;28;20053;-70
2022/05/06 15:17:18;;;;;;;3.13;2.17;;;;;;;;;;5021865;28;20132;-71
2022/05/06 15:19:46;;;;;;;3.25;2.92;;;;;;;;;;5017812;28;20049;-73
2022/05/06 15:22:14;;;;;;;6.65;3.38;;;;;;;;;;5006568;28;20054;-74
2022/05/06 15:24:41;;;;;;;4.35;3.30;;;;;;;;;;5018911;28;20049;-71
2022/05/06 15:27:08;;;;;;;5.65;3.10;;;;;;;;;;5019702;28;20045;-70
2022/05/06 15:29:36;;;;;;;5.22;3.10;;;;;;;;;;5019209;28;20566;-71
2022/05/06 15:32:03;;;;;;;5.35;3.67;;;;;;;;;;5021007;28;20121;-71
2022/05/06 15:34:30;;;;;;;3.40;3.10;;;;;;;;;;5022453;28;20050;-69
2022/05/06 15:36:57;;;;;;;4.97;3.00;;;;;;;;;;5015591;28;20042;-70